sensor_id;sensor_type;location;lat;lon;timestamp;P1;durP1;ratioP1;P2;durP2;ratioP2
20629;SDS011;17386;43.846;25.950;2023-07-13T00:00:07;22.45;;;11.57;;
20629;SDS011;17386;43.846;25.950;2023-07-13T00:02:38;16.55;;;10.48;;
20629;SDS011;17386;43.846;25.950;2023-07-13T00:05:05;17.40;;;11.48;;
20629;SDS011;17386;43.846;25.950;2023-07-13T00:07:33;17.23;;;10.68;;
20629;SDS011;17386;43.846;25.950;2023-07-13T00:10:01;16.50;;;10.90;;
20629;SDS011;17386;43.846;25.950;2023-07-13T00:12:30;20.95;;;10.77;;
20629;SDS011;17386;43.846;25.950;2023-07-13T00:14:59;20.17;;;10.32;;
20629;SDS011;17386;43.846;25.950;2023-07-13T00:17:28;17.48;;;10.40;;
20629;SDS011;17386;43.846;25.950;2023-07-13T00:22:22;16.38;;;10.68;;
20629;SDS011;17386;43.846;25.950;2023-07-13T00:24:53;17.80;;;10.90;;
20629;SDS011;17386;43.846;25.950;2023-07-13T00:27:22;16.00;;;10.88;;
20629;SDS011;17386;43.846;25.950;2023-07-13T00:29:49;21.58;;;11.25;;
20629;SDS011;17386;43.846;25.950;2023-07-13T00:32:16;19.00;;;10.60;;
20629;SDS011;17386;43.846;25.950;2023-07-13T00:34:42;18.60;;;11.32;;
20629;SDS011;17386;43.846;25.950;2023-07-13T00:37:09;18.10;;;11.40;;
20629;SDS011;17386;43.846;25.950;2023-07-13T00:39:38;16.58;;;10.88;;
20629;SDS011;17386;43.846;25.950;2023-07-13T00:42:05;21.80;;;11.38;;
20629;SDS011;17386;43.846;25.950;2023-07-13T00:46:59;17.95;;;11.60;;
20629;SDS011;17386;43.846;25.950;2023-07-13T00:49:26;18.90;;;11.48;;
20629;SDS011;17386;43.846;25.950;2023-07-13T00:52:04;15.65;;;10.82;;
20629;SDS011;17386;43.846;25.950;2023-07-13T00:54:38;16.77;;;11.05;;
20629;SDS011;17386;43.846;25.950;2023-07-13T00:57:12;17.42;;;10.45;;
20629;SDS011;17386;43.846;25.950;2023-07-13T00:59:47;19.23;;;11.68;;
20629;SDS011;17386;43.846;25.950;2023-07-13T01:02:18;21.38;;;11.30;;
20629;SDS011;17386;43.846;25.950;2023-07-13T01:04:46;18.50;;;11.20;;
20629;SDS011;17386;43.846;25.950;2023-07-13T01:07:12;14.85;;;10.45;;
20629;SDS011;17386;43.846;25.950;2023-07-13T01:09:39;16.00;;;10.48;;
20629;SDS011;17386;43.846;25.950;2023-07-13T01:12:06;16.83;;;11.00;;
20629;SDS011;17386;43.846;25.950;2023-07-13T01:14:33;16.42;;;11.35;;
20629;SDS011;17386;43.846;25.950;2023-07-13T01:17:00;16.63;;;10.88;;
20629;SDS011;17386;43.846;25.950;2023-07-13T01:22:03;18.77;;;10.52;;
20629;SDS011;17386;43.846;25.950;2023-07-13T01:24:35;17.52;;;11.77;;
20629;SDS011;17386;43.846;25.950;2023-07-13T01:27:03;18.13;;;10.75;;
20629;SDS011;17386;43.846;25.950;2023-07-13T01:29:32;16.30;;;10.88;;
20629;SDS011;17386;43.846;25.950;2023-07-13T01:31:59;17.55;;;10.82;;
20629;SDS011;17386;43.846;25.950;2023-07-13T01:34:27;16.80;;;10.82;;
20629;SDS011;17386;43.846;25.950;2023-07-13T01:36:54;17.15;;;10.88;;
20629;SDS011;17386;43.846;25.950;2023-07-13T01:39:21;15.63;;;10.52;;
20629;SDS011;17386;43.846;25.950;2023-07-13T01:41:49;18.08;;;10.73;;
20629;SDS011;17386;43.846;25.950;2023-07-13T01:44:15;16.60;;;11.20;;
20629;SDS011;17386;43.846;25.950;2023-07-13T01:46:42;16.95;;;11.35;;
20629;SDS011;17386;43.846;25.950;2023-07-13T01:51:36;17.70;;;10.68;;
20629;SDS011;17386;43.846;25.950;2023-07-13T01:54:03;19.17;;;11.02;;
20629;SDS011;17386;43.846;25.950;2023-07-13T01:56:30;16.52;;;11.25;;
20629;SDS011;17386;43.846;25.950;2023-07-13T01:58:56;15.98;;;11.25;;
20629;SDS011;17386;43.846;25.950;2023-07-13T02:01:23;18.77;;;11.30;;
20629;SDS011;17386;43.846;25.950;2023-07-13T02:03:49;17.85;;;11.73;;
20629;SDS011;17386;43.846;25.950;2023-07-13T02:06:17;21.70;;;11.95;;
20629;SDS011;17386;43.846;25.950;2023-07-13T02:08:43;18.50;;;11.68;;
20629;SDS011;17386;43.846;25.950;2023-07-13T02:11:09;16.73;;;10.43;;
20629;SDS011;17386;43.846;25.950;2023-07-13T02:13:36;17.67;;;11.30;;
20629;SDS011;17386;43.846;25.950;2023-07-13T02:16:03;18.92;;;11.13;;
20629;SDS011;17386;43.846;25.950;2023-07-13T02:18:29;17.92;;;11.23;;
20629;SDS011;17386;43.846;25.950;2023-07-13T02:20:56;18.20;;;10.77;;
20629;SDS011;17386;43.846;25.950;2023-07-13T02:23:22;17.77;;;11.20;;
20629;SDS011;17386;43.846;25.950;2023-07-13T02:28:20;18.27;;;10.23;;
20629;SDS011;17386;43.846;25.950;2023-07-13T02:30:47;16.52;;;10.90;;
20629;SDS011;17386;43.846;25.950;2023-07-13T02:33:13;20.02;;;12.15;;
20629;SDS011;17386;43.846;25.950;2023-07-13T02:35:40;16.95;;;11.02;;
20629;SDS011;17386;43.846;25.950;2023-07-13T02:38:07;20.30;;;11.40;;
20629;SDS011;17386;43.846;25.950;2023-07-13T02:40:35;18.63;;;10.80;;
20629;SDS011;17386;43.846;25.950;2023-07-13T02:43:02;19.20;;;11.52;;
20629;SDS011;17386;43.846;25.950;2023-07-13T02:45:29;19.25;;;11.43;;
20629;SDS011;17386;43.846;25.950;2023-07-13T02:47:55;19.13;;;11.02;;
20629;SDS011;17386;43.846;25.950;2023-07-13T02:50:22;19.95;;;10.98;;
20629;SDS011;17386;43.846;25.950;2023-07-13T02:52:49;17.15;;;10.55;;
20629;SDS011;17386;43.846;25.950;2023-07-13T02:55:16;18.98;;;10.77;;
20629;SDS011;17386;43.846;25.950;2023-07-13T02:57:43;18.17;;;10.57;;
20629;SDS011;17386;43.846;25.950;2023-07-13T03:00:10;17.63;;;10.52;;
20629;SDS011;17386;43.846;25.950;2023-07-13T03:02:37;17.40;;;10.50;;
20629;SDS011;17386;43.846;25.950;2023-07-13T03:05:04;17.63;;;10.88;;
20629;SDS011;17386;43.846;25.950;2023-07-13T03:07:31;17.80;;;10.88;;
20629;SDS011;17386;43.846;25.950;2023-07-13T03:09:57;18.30;;;11.60;;
20629;SDS011;17386;43.846;25.950;2023-07-13T03:14:51;16.70;;;10.68;;
20629;SDS011;17386;43.846;25.950;2023-07-13T03:17:18;16.77;;;10.82;;
20629;SDS011;17386;43.846;25.950;2023-07-13T03:19:44;18.38;;;11.18;;
20629;SDS011;17386;43.846;25.950;2023-07-13T03:22:11;21.52;;;11.20;;
20629;SDS011;17386;43.846;25.950;2023-07-13T03:24:38;17.73;;;10.85;;
20629;SDS011;17386;43.846;25.950;2023-07-13T03:27:05;19.45;;;11.23;;
20629;SDS011;17386;43.846;25.950;2023-07-13T03:29:32;22.30;;;10.93;;
20629;SDS011;17386;43.846;25.950;2023-07-13T03:31:58;16.50;;;11.32;;
20629;SDS011;17386;43.846;25.950;2023-07-13T03:34:25;18.98;;;11.48;;
20629;SDS011;17386;43.846;25.950;2023-07-13T03:36:53;19.17;;;10.93;;
20629;SDS011;17386;43.846;25.950;2023-07-13T03:39:20;14.88;;;10.50;;
20629;SDS011;17386;43.846;25.950;2023-07-13T03:41:48;17.20;;;10.82;;
20629;SDS011;17386;43.846;25.950;2023-07-13T03:44:17;18.30;;;11.23;;
20629;SDS011;17386;43.846;25.950;2023-07-13T03:46:45;20.33;;;11.02;;
20629;SDS011;17386;43.846;25.950;2023-07-13T03:49:11;21.40;;;11.63;;
20629;SDS011;17386;43.846;25.950;2023-07-13T03:51:38;17.05;;;11.70;;
20629;SDS011;17386;43.846;25.950;2023-07-13T03:54:05;20.30;;;11.13;;
20629;SDS011;17386;43.846;25.950;2023-07-13T03:56:32;18.67;;;10.60;;
20629;SDS011;17386;43.846;25.950;2023-07-13T03:59:00;21.40;;;11.30;;
20629;SDS011;17386;43.846;25.950;2023-07-13T04:01:26;16.92;;;10.15;;
20629;SDS011;17386;43.846;25.950;2023-07-13T04:03:53;16.80;;;11.13;;
20629;SDS011;17386;43.846;25.950;2023-07-13T04:06:21;18.58;;;11.43;;
20629;SDS011;17386;43.846;25.950;2023-07-13T04:08:50;20.33;;;11.48;;
20629;SDS011;17386;43.846;25.950;2023-07-13T04:11:20;17.45;;;10.98;;
20629;SDS011;17386;43.846;25.950;2023-07-13T04:13:48;17.58;;;10.75;;
20629;SDS011;17386;43.846;25.950;2023-07-13T04:16:16;16.95;;;11.05;;
20629;SDS011;17386;43.846;25.950;2023-07-13T04:18:44;19.48;;;11.20;;
20629;SDS011;17386;43.846;25.950;2023-07-13T04:21:13;16.00;;;10.93;;
20629;SDS011;17386;43.846;25.950;2023-07-13T04:23:40;21.67;;;10.18;;
20629;SDS011;17386;43.846;25.950;2023-07-13T04:26:07;22.83;;;11.95;;
20629;SDS011;17386;43.846;25.950;2023-07-13T04:28:34;16.67;;;10.90;;
20629;SDS011;17386;43.846;25.950;2023-07-13T04:31:01;18.90;;;11.32;;
20629;SDS011;17386;43.846;25.950;2023-07-13T04:33:30;18.55;;;11.38;;
20629;SDS011;17386;43.846;25.950;2023-07-13T04:35:57;22.65;;;11.27;;
20629;SDS011;17386;43.846;25.950;2023-07-13T04:38:26;19.00;;;10.80;;
20629;SDS011;17386;43.846;25.950;2023-07-13T04:40:59;16.83;;;10.85;;
20629;SDS011;17386;43.846;25.950;2023-07-13T04:43:27;19.67;;;11.30;;
20629;SDS011;17386;43.846;25.950;2023-07-13T04:45:55;16.85;;;11.27;;
20629;SDS011;17386;43.846;25.950;2023-07-13T04:48:23;19.02;;;12.18;;
20629;SDS011;17386;43.846;25.950;2023-07-13T04:50:58;21.42;;;11.38;;
20629;SDS011;17386;43.846;25.950;2023-07-13T04:53:25;19.95;;;12.13;;
20629;SDS011;17386;43.846;25.950;2023-07-13T04:55:51;25.67;;;15.93;;
20629;SDS011;17386;43.846;25.950;2023-07-13T04:58:18;23.02;;;12.50;;
20629;SDS011;17386;43.846;25.950;2023-07-13T05:00:45;16.63;;;11.38;;
20629;SDS011;17386;43.846;25.950;2023-07-13T05:03:12;17.85;;;11.45;;
20629;SDS011;17386;43.846;25.950;2023-07-13T05:05:39;18.25;;;11.50;;
20629;SDS011;17386;43.846;25.950;2023-07-13T05:08:06;18.52;;;12.27;;
20629;SDS011;17386;43.846;25.950;2023-07-13T05:10:33;28.30;;;11.93;;
20629;SDS011;17386;43.846;25.950;2023-07-13T05:13:01;22.88;;;11.55;;
20629;SDS011;17386;43.846;25.950;2023-07-13T05:15:29;22.75;;;11.75;;
20629;SDS011;17386;43.846;25.950;2023-07-13T05:17:55;17.20;;;11.68;;
20629;SDS011;17386;43.846;25.950;2023-07-13T05:20:22;21.35;;;11.68;;
20629;SDS011;17386;43.846;25.950;2023-07-13T05:22:47;16.27;;;11.38;;
20629;SDS011;17386;43.846;25.950;2023-07-13T05:25:14;18.30;;;11.52;;
20629;SDS011;17386;43.846;25.950;2023-07-13T05:27:40;21.42;;;11.95;;
20629;SDS011;17386;43.846;25.950;2023-07-13T05:30:07;19.58;;;12.20;;
20629;SDS011;17386;43.846;25.950;2023-07-13T05:32:37;20.15;;;12.77;;
20629;SDS011;17386;43.846;25.950;2023-07-13T05:35:05;19.40;;;11.75;;
20629;SDS011;17386;43.846;25.950;2023-07-13T05:37:32;20.45;;;11.75;;
20629;SDS011;17386;43.846;25.950;2023-07-13T05:39:59;26.27;;;12.75;;
20629;SDS011;17386;43.846;25.950;2023-07-13T05:42:26;29.40;;;14.50;;
20629;SDS011;17386;43.846;25.950;2023-07-13T05:44:52;21.00;;;11.60;;
20629;SDS011;17386;43.846;25.950;2023-07-13T05:47:19;24.67;;;11.85;;
20629;SDS011;17386;43.846;25.950;2023-07-13T05:49:46;21.83;;;11.82;;
20629;SDS011;17386;43.846;25.950;2023-07-13T05:52:12;22.50;;;12.30;;
20629;SDS011;17386;43.846;25.950;2023-07-13T05:54:39;15.77;;;10.77;;
20629;SDS011;17386;43.846;25.950;2023-07-13T05:57:06;19.50;;;11.18;;
20629;SDS011;17386;43.846;25.950;2023-07-13T05:59:32;19.23;;;11.50;;
20629;SDS011;17386;43.846;25.950;2023-07-13T06:01:59;16.90;;;11.73;;
20629;SDS011;17386;43.846;25.950;2023-07-13T06:04:25;23.10;;;14.48;;
20629;SDS011;17386;43.846;25.950;2023-07-13T06:06:52;17.45;;;10.55;;
20629;SDS011;17386;43.846;25.950;2023-07-13T06:14:11;22.77;;;11.68;;
20629;SDS011;17386;43.846;25.950;2023-07-13T06:16:37;15.70;;;10.57;;
20629;SDS011;17386;43.846;25.950;2023-07-13T06:19:03;17.00;;;10.60;;
20629;SDS011;17386;43.846;25.950;2023-07-13T06:21:30;18.20;;;10.50;;
20629;SDS011;17386;43.846;25.950;2023-07-13T06:23:57;15.60;;;9.90;;
20629;SDS011;17386;43.846;25.950;2023-07-13T06:26:24;18.23;;;10.27;;
20629;SDS011;17386;43.846;25.950;2023-07-13T06:28:51;15.82;;;10.13;;
20629;SDS011;17386;43.846;25.950;2023-07-13T06:31:19;13.20;;;9.30;;
20629;SDS011;17386;43.846;25.950;2023-07-13T06:33:45;16.48;;;9.98;;
20629;SDS011;17386;43.846;25.950;2023-07-13T06:36:12;18.45;;;8.88;;
20629;SDS011;17386;43.846;25.950;2023-07-13T06:38:37;14.15;;;10.23;;
20629;SDS011;17386;43.846;25.950;2023-07-13T06:41:05;17.85;;;10.77;;
20629;SDS011;17386;43.846;25.950;2023-07-13T06:43:34;14.77;;;10.38;;
20629;SDS011;17386;43.846;25.950;2023-07-13T06:46:00;15.70;;;10.88;;
20629;SDS011;17386;43.846;25.950;2023-07-13T06:48:27;19.48;;;13.55;;
20629;SDS011;17386;43.846;25.950;2023-07-13T06:50:53;18.35;;;10.93;;
20629;SDS011;17386;43.846;25.950;2023-07-13T06:53:20;18.98;;;11.25;;
20629;SDS011;17386;43.846;25.950;2023-07-13T06:55:48;16.58;;;11.60;;
20629;SDS011;17386;43.846;25.950;2023-07-13T06:58:15;14.23;;;9.57;;
20629;SDS011;17386;43.846;25.950;2023-07-13T07:00:43;14.43;;;10.10;;
20629;SDS011;17386;43.846;25.950;2023-07-13T07:03:09;12.85;;;9.38;;
20629;SDS011;17386;43.846;25.950;2023-07-13T07:05:35;23.50;;;14.65;;
20629;SDS011;17386;43.846;25.950;2023-07-13T07:08:01;18.30;;;10.43;;
20629;SDS011;17386;43.846;25.950;2023-07-13T07:10:28;15.23;;;10.30;;
20629;SDS011;17386;43.846;25.950;2023-07-13T07:12:55;20.38;;;11.50;;
20629;SDS011;17386;43.846;25.950;2023-07-13T07:15:20;22.48;;;10.73;;
20629;SDS011;17386;43.846;25.950;2023-07-13T07:17:47;13.45;;;9.55;;
20629;SDS011;17386;43.846;25.950;2023-07-13T07:20:12;18.10;;;9.77;;
20629;SDS011;17386;43.846;25.950;2023-07-13T07:22:39;14.65;;;9.85;;
20629;SDS011;17386;43.846;25.950;2023-07-13T07:25:06;15.52;;;10.27;;
20629;SDS011;17386;43.846;25.950;2023-07-13T07:27:33;12.05;;;8.43;;
20629;SDS011;17386;43.846;25.950;2023-07-13T07:29:59;14.30;;;9.80;;
20629;SDS011;17386;43.846;25.950;2023-07-13T07:32:26;16.90;;;9.75;;
20629;SDS011;17386;43.846;25.950;2023-07-13T07:34:55;17.25;;;11.00;;
20629;SDS011;17386;43.846;25.950;2023-07-13T07:37:23;13.60;;;9.75;;
20629;SDS011;17386;43.846;25.950;2023-07-13T07:39:49;18.10;;;9.90;;
20629;SDS011;17386;43.846;25.950;2023-07-13T07:42:15;17.63;;;10.95;;
20629;SDS011;17386;43.846;25.950;2023-07-13T07:44:42;13.48;;;9.00;;
20629;SDS011;17386;43.846;25.950;2023-07-13T07:47:08;13.02;;;8.88;;
20629;SDS011;17386;43.846;25.950;2023-07-13T07:49:36;14.63;;;9.32;;
20629;SDS011;17386;43.846;25.950;2023-07-13T07:52:02;15.60;;;10.27;;
20629;SDS011;17386;43.846;25.950;2023-07-13T07:54:29;12.98;;;9.48;;
20629;SDS011;17386;43.846;25.950;2023-07-13T07:56:56;13.60;;;9.43;;
20629;SDS011;17386;43.846;25.950;2023-07-13T07:59:23;13.80;;;8.35;;
20629;SDS011;17386;43.846;25.950;2023-07-13T08:01:49;15.88;;;9.82;;
20629;SDS011;17386;43.846;25.950;2023-07-13T08:04:16;18.52;;;9.75;;
20629;SDS011;17386;43.846;25.950;2023-07-13T08:06:42;14.95;;;9.20;;
20629;SDS011;17386;43.846;25.950;2023-07-13T08:09:08;13.38;;;9.48;;
20629;SDS011;17386;43.846;25.950;2023-07-13T08:11:35;15.48;;;9.77;;
20629;SDS011;17386;43.846;25.950;2023-07-13T08:14:02;16.02;;;9.85;;
20629;SDS011;17386;43.846;25.950;2023-07-13T08:16:28;15.57;;;9.07;;
20629;SDS011;17386;43.846;25.950;2023-07-13T08:18:55;14.27;;;8.73;;
20629;SDS011;17386;43.846;25.950;2023-07-13T08:21:22;13.80;;;9.75;;
20629;SDS011;17386;43.846;25.950;2023-07-13T08:23:49;13.82;;;9.52;;
20629;SDS011;17386;43.846;25.950;2023-07-13T08:26:15;12.65;;;8.60;;
20629;SDS011;17386;43.846;25.950;2023-07-13T08:28:42;15.07;;;8.75;;
20629;SDS011;17386;43.846;25.950;2023-07-13T08:31:10;13.38;;;9.27;;
20629;SDS011;17386;43.846;25.950;2023-07-13T08:33:36;12.48;;;8.90;;
20629;SDS011;17386;43.846;25.950;2023-07-13T08:36:04;15.48;;;9.48;;
20629;SDS011;17386;43.846;25.950;2023-07-13T08:38:30;15.43;;;9.10;;
20629;SDS011;17386;43.846;25.950;2023-07-13T08:40:58;13.45;;;8.70;;
20629;SDS011;17386;43.846;25.950;2023-07-13T08:43:30;17.50;;;8.80;;
20629;SDS011;17386;43.846;25.950;2023-07-13T08:48:56;12.40;;;8.55;;
20629;SDS011;17386;43.846;25.950;2023-07-13T08:52:06;13.90;;;8.68;;
20629;SDS011;17386;43.846;25.950;2023-07-13T08:54:45;15.40;;;8.60;;
20629;SDS011;17386;43.846;25.950;2023-07-13T08:57:20;9.57;;;7.68;;
20629;SDS011;17386;43.846;25.950;2023-07-13T08:59:55;13.90;;;9.07;;
20629;SDS011;17386;43.846;25.950;2023-07-13T09:02:42;14.25;;;9.50;;
20629;SDS011;17386;43.846;25.950;2023-07-13T09:05:18;13.85;;;8.07;;
20629;SDS011;17386;43.846;25.950;2023-07-13T09:11:00;9.70;;;7.25;;
20629;SDS011;17386;43.846;25.950;2023-07-13T09:16:41;12.55;;;7.32;;
20629;SDS011;17386;43.846;25.950;2023-07-13T09:19:11;11.07;;;7.82;;
20629;SDS011;17386;43.846;25.950;2023-07-13T09:21:52;14.57;;;8.23;;
20629;SDS011;17386;43.846;25.950;2023-07-13T09:24:29;12.15;;;8.63;;
20629;SDS011;17386;43.846;25.950;2023-07-13T09:27:05;16.50;;;8.32;;
20629;SDS011;17386;43.846;25.950;2023-07-13T09:30:02;11.98;;;8.77;;
20629;SDS011;17386;43.846;25.950;2023-07-13T09:32:52;12.13;;;7.68;;
20629;SDS011;17386;43.846;25.950;2023-07-13T09:35:20;12.30;;;8.15;;
20629;SDS011;17386;43.846;25.950;2023-07-13T09:37:50;10.30;;;6.97;;
20629;SDS011;17386;43.846;25.950;2023-07-13T09:46:53;11.75;;;7.22;;
20629;SDS011;17386;43.846;25.950;2023-07-13T09:49:23;10.35;;;7.45;;
20629;SDS011;17386;43.846;25.950;2023-07-13T09:51:59;14.00;;;8.18;;
20629;SDS011;17386;43.846;25.950;2023-07-13T09:54:33;10.50;;;6.90;;
20629;SDS011;17386;43.846;25.950;2023-07-13T09:57:01;9.75;;;6.68;;
20629;SDS011;17386;43.846;25.950;2023-07-13T09:59:42;11.05;;;6.38;;
20629;SDS011;17386;43.846;25.950;2023-07-13T10:05:03;18.58;;;10.50;;
20629;SDS011;17386;43.846;25.950;2023-07-13T10:07:44;12.75;;;7.28;;
20629;SDS011;17386;43.846;25.950;2023-07-13T10:10:21;12.93;;;8.65;;
20629;SDS011;17386;43.846;25.950;2023-07-13T10:12:49;10.00;;;6.55;;
20629;SDS011;17386;43.846;25.950;2023-07-13T10:15:21;10.52;;;6.43;;
20629;SDS011;17386;43.846;25.950;2023-07-13T10:17:49;10.27;;;6.45;;
20629;SDS011;17386;43.846;25.950;2023-07-13T10:20:17;9.18;;;6.72;;
20629;SDS011;17386;43.846;25.950;2023-07-13T10:23:05;15.98;;;8.07;;
20629;SDS011;17386;43.846;25.950;2023-07-13T10:25:42;16.10;;;9.05;;
20629;SDS011;17386;43.846;25.950;2023-07-13T10:28:21;13.13;;;6.78;;
20629;SDS011;17386;43.846;25.950;2023-07-13T10:30:50;11.25;;;7.80;;
20629;SDS011;17386;43.846;25.950;2023-07-13T10:33:24;13.27;;;7.60;;
20629;SDS011;17386;43.846;25.950;2023-07-13T10:35:54;14.15;;;7.13;;
20629;SDS011;17386;43.846;25.950;2023-07-13T10:38:38;13.07;;;8.15;;
20629;SDS011;17386;43.846;25.950;2023-07-13T10:41:09;11.32;;;7.57;;
20629;SDS011;17386;43.846;25.950;2023-07-13T10:43:46;10.70;;;6.43;;
20629;SDS011;17386;43.846;25.950;2023-07-13T10:46:17;9.18;;;6.32;;
20629;SDS011;17386;43.846;25.950;2023-07-13T10:48:48;9.82;;;6.50;;
20629;SDS011;17386;43.846;25.950;2023-07-13T10:51:18;10.43;;;6.05;;
20629;SDS011;17386;43.846;25.950;2023-07-13T10:53:47;8.85;;;5.97;;
20629;SDS011;17386;43.846;25.950;2023-07-13T10:56:43;17.58;;;7.55;;
20629;SDS011;17386;43.846;25.950;2023-07-13T11:04:42;10.38;;;5.88;;
20629;SDS011;17386;43.846;25.950;2023-07-13T11:07:33;11.02;;;5.78;;
20629;SDS011;17386;43.846;25.950;2023-07-13T11:10:45;9.00;;;6.07;;
20629;SDS011;17386;43.846;25.950;2023-07-13T11:18:48;7.10;;;5.30;;
20629;SDS011;17386;43.846;25.950;2023-07-13T11:23:42;11.35;;;6.40;;
20629;SDS011;17386;43.846;25.950;2023-07-13T11:31:53;10.50;;;6.13;;
20629;SDS011;17386;43.846;25.950;2023-07-13T11:34:33;8.13;;;5.70;;
20629;SDS011;17386;43.846;25.950;2023-07-13T11:37:02;8.13;;;5.15;;
20629;SDS011;17386;43.846;25.950;2023-07-13T11:39:31;15.85;;;5.07;;
20629;SDS011;17386;43.846;25.950;2023-07-13T11:42:05;8.98;;;5.20;;
20629;SDS011;17386;43.846;25.950;2023-07-13T11:44:42;11.80;;;5.57;;
20629;SDS011;17386;43.846;25.950;2023-07-13T11:47:14;10.85;;;6.00;;
20629;SDS011;17386;43.846;25.950;2023-07-13T11:49:48;12.85;;;6.00;;
20629;SDS011;17386;43.846;25.950;2023-07-13T11:52:31;10.57;;;5.78;;
20629;SDS011;17386;43.846;25.950;2023-07-13T11:55:04;11.25;;;5.47;;
20629;SDS011;17386;43.846;25.950;2023-07-13T11:57:42;8.95;;;5.20;;
20629;SDS011;17386;43.846;25.950;2023-07-13T12:00:15;12.63;;;5.43;;
20629;SDS011;17386;43.846;25.950;2023-07-13T12:02:54;11.93;;;5.38;;
20629;SDS011;17386;43.846;25.950;2023-07-13T12:05:24;10.15;;;6.45;;
20629;SDS011;17386;43.846;25.950;2023-07-13T12:07:51;14.13;;;5.80;;
20629;SDS011;17386;43.846;25.950;2023-07-13T12:10:29;10.25;;;5.53;;
20629;SDS011;17386;43.846;25.950;2023-07-13T12:12:58;10.75;;;5.30;;
20629;SDS011;17386;43.846;25.950;2023-07-13T12:15:39;10.27;;;5.55;;
20629;SDS011;17386;43.846;25.950;2023-07-13T12:18:19;12.32;;;5.47;;
20629;SDS011;17386;43.846;25.950;2023-07-13T12:20:50;8.93;;;4.88;;
20629;SDS011;17386;43.846;25.950;2023-07-13T12:25:57;10.88;;;4.97;;
20629;SDS011;17386;43.846;25.950;2023-07-13T12:28:37;13.05;;;5.25;;
20629;SDS011;17386;43.846;25.950;2023-07-13T12:34:18;8.95;;;5.00;;
20629;SDS011;17386;43.846;25.950;2023-07-13T12:41:54;11.10;;;4.40;;
20629;SDS011;17386;43.846;25.950;2023-07-13T12:44:44;10.32;;;5.10;;
20629;SDS011;17386;43.846;25.950;2023-07-13T12:47:15;8.40;;;4.43;;
20629;SDS011;17386;43.846;25.950;2023-07-13T12:49:43;11.80;;;4.38;;
20629;SDS011;17386;43.846;25.950;2023-07-13T12:52:16;12.38;;;4.57;;
20629;SDS011;17386;43.846;25.950;2023-07-13T12:54:59;10.88;;;4.32;;
20629;SDS011;17386;43.846;25.950;2023-07-13T12:57:59;8.88;;;4.45;;
20629;SDS011;17386;43.846;25.950;2023-07-13T13:00:32;12.32;;;4.40;;
20629;SDS011;17386;43.846;25.950;2023-07-13T13:03:12;10.90;;;4.68;;
20629;SDS011;17386;43.846;25.950;2023-07-13T13:05:48;10.27;;;4.72;;
20629;SDS011;17386;43.846;25.950;2023-07-13T13:08:13;11.98;;;4.32;;
20629;SDS011;17386;43.846;25.950;2023-07-13T13:10:40;11.70;;;4.53;;
20629;SDS011;17386;43.846;25.950;2023-07-13T13:13:06;11.52;;;5.88;;
20629;SDS011;17386;43.846;25.950;2023-07-13T13:15:32;9.55;;;4.28;;
20629;SDS011;17386;43.846;25.950;2023-07-13T13:17:58;11.65;;;4.70;;
20629;SDS011;17386;43.846;25.950;2023-07-13T13:20:23;11.43;;;4.78;;
20629;SDS011;17386;43.846;25.950;2023-07-13T13:22:51;9.13;;;4.75;;
20629;SDS011;17386;43.846;25.950;2023-07-13T13:25:18;7.75;;;4.20;;
20629;SDS011;17386;43.846;25.950;2023-07-13T13:27:45;11.73;;;4.72;;
20629;SDS011;17386;43.846;25.950;2023-07-13T13:30:11;12.70;;;5.07;;
20629;SDS011;17386;43.846;25.950;2023-07-13T13:32:39;9.57;;;4.80;;
20629;SDS011;17386;43.846;25.950;2023-07-13T13:35:19;7.47;;;4.43;;
20629;SDS011;17386;43.846;25.950;2023-07-13T13:37:45;8.93;;;4.60;;
20629;SDS011;17386;43.846;25.950;2023-07-13T13:40:21;9.65;;;4.68;;
20629;SDS011;17386;43.846;25.950;2023-07-13T13:42:49;10.02;;;4.78;;
20629;SDS011;17386;43.846;25.950;2023-07-13T13:45:17;13.75;;;5.28;;
20629;SDS011;17386;43.846;25.950;2023-07-13T13:47:44;10.32;;;4.53;;
20629;SDS011;17386;43.846;25.950;2023-07-13T13:50:16;12.35;;;4.85;;
20629;SDS011;17386;43.846;25.950;2023-07-13T13:52:44;9.75;;;5.15;;
20629;SDS011;17386;43.846;25.950;2023-07-13T13:55:17;9.63;;;4.53;;
20629;SDS011;17386;43.846;25.950;2023-07-13T13:57:48;10.32;;;4.68;;
20629;SDS011;17386;43.846;25.950;2023-07-13T14:00:15;10.68;;;4.68;;
20629;SDS011;17386;43.846;25.950;2023-07-13T14:02:44;9.82;;;5.10;;
20629;SDS011;17386;43.846;25.950;2023-07-13T14:05:14;10.50;;;5.05;;
20629;SDS011;17386;43.846;25.950;2023-07-13T14:07:44;8.95;;;4.53;;
20629;SDS011;17386;43.846;25.950;2023-07-13T14:10:16;10.93;;;5.65;;
20629;SDS011;17386;43.846;25.950;2023-07-13T14:12:45;7.70;;;4.97;;
20629;SDS011;17386;43.846;25.950;2023-07-13T14:17:50;8.82;;;4.75;;
20629;SDS011;17386;43.846;25.950;2023-07-13T14:20:16;7.93;;;4.47;;
20629;SDS011;17386;43.846;25.950;2023-07-13T14:22:44;8.32;;;4.60;;
20629;SDS011;17386;43.846;25.950;2023-07-13T14:25:15;9.82;;;5.32;;
20629;SDS011;17386;43.846;25.950;2023-07-13T14:27:42;13.13;;;5.25;;
20629;SDS011;17386;43.846;25.950;2023-07-13T14:30:18;10.63;;;5.05;;
20629;SDS011;17386;43.846;25.950;2023-07-13T14:32:46;10.98;;;5.03;;
20629;SDS011;17386;43.846;25.950;2023-07-13T14:35:18;11.52;;;5.93;;
20629;SDS011;17386;43.846;25.950;2023-07-13T14:37:48;9.32;;;4.88;;
20629;SDS011;17386;43.846;25.950;2023-07-13T14:42:51;10.70;;;5.05;;
20629;SDS011;17386;43.846;25.950;2023-07-13T14:45:18;10.00;;;5.30;;
20629;SDS011;17386;43.846;25.950;2023-07-13T14:47:46;9.77;;;4.93;;
20629;SDS011;17386;43.846;25.950;2023-07-13T14:50:16;13.20;;;4.72;;
20629;SDS011;17386;43.846;25.950;2023-07-13T14:52:44;10.35;;;4.68;;
20629;SDS011;17386;43.846;25.950;2023-07-13T14:55:12;9.70;;;5.07;;
20629;SDS011;17386;43.846;25.950;2023-07-13T14:57:40;12.13;;;5.13;;
20629;SDS011;17386;43.846;25.950;2023-07-13T15:02:42;12.88;;;6.32;;
20629;SDS011;17386;43.846;25.950;2023-07-13T15:05:19;13.20;;;6.43;;
20629;SDS011;17386;43.846;25.950;2023-07-13T15:07:49;13.43;;;7.35;;
20629;SDS011;17386;43.846;25.950;2023-07-13T15:12:52;10.40;;;5.65;;
20629;SDS011;17386;43.846;25.950;2023-07-13T15:15:23;11.48;;;4.90;;
20629;SDS011;17386;43.846;25.950;2023-07-13T15:17:48;10.90;;;5.07;;
20629;SDS011;17386;43.846;25.950;2023-07-13T15:20:30;17.58;;;5.90;;
20629;SDS011;17386;43.846;25.950;2023-07-13T15:22:59;11.60;;;4.57;;
20629;SDS011;17386;43.846;25.950;2023-07-13T15:25:25;12.13;;;4.78;;
20629;SDS011;17386;43.846;25.950;2023-07-13T15:27:53;9.13;;;4.15;;
20629;SDS011;17386;43.846;25.950;2023-07-13T15:30:20;11.20;;;4.70;;
20629;SDS011;17386;43.846;25.950;2023-07-13T15:32:46;10.10;;;4.68;;
20629;SDS011;17386;43.846;25.950;2023-07-13T15:37:43;9.68;;;4.50;;
20629;SDS011;17386;43.846;25.950;2023-07-13T15:40:11;9.98;;;4.65;;
20629;SDS011;17386;43.846;25.950;2023-07-13T15:42:40;11.63;;;5.00;;
20629;SDS011;17386;43.846;25.950;2023-07-13T15:45:26;11.52;;;4.85;;
20629;SDS011;17386;43.846;25.950;2023-07-13T15:47:52;12.15;;;5.90;;
20629;SDS011;17386;43.846;25.950;2023-07-13T15:52:49;10.98;;;4.32;;